createdAt,value
2022-09-05T00:01:57.480Z,100649.91
2022-09-05T00:04:47.086Z,100650.28
2022-09-05T00:07:37.485Z,100645.31
2022-09-05T00:10:24.421Z,100639.41
2022-09-05T00:13:07.022Z,100637.78
2022-09-05T00:16:30.227Z,100651.72
2022-09-05T00:24:17.161Z,100640.53
2022-09-05T00:24:34.755Z,100641.88
2022-09-05T00:28:25.948Z,100647.13
2022-09-05T00:31:53.814Z,100646.75
2022-09-05T00:34:47.519Z,100641.69
2022-09-05T00:37:26.605Z,100639.94
2022-09-05T00:40:27.418Z,100634.91
2022-09-05T00:42:58.300Z,100625.91
2022-09-05T00:45:31.672Z,100631.19
2022-09-05T00:48:08.167Z,100642.47
2022-09-05T00:50:56.644Z,100638.50
2022-09-05T00:53:40.219Z,100639.16
2022-09-05T00:56:43.913Z,100634.91
2022-09-05T00:59:28.569Z,100635.13
2022-09-05T01:02:07.056Z,100633.03
2022-09-05T01:05:01.163Z,100641.06
2022-09-05T01:07:46.618Z,100625.06
2022-09-05T01:10:35.040Z,100622.31
2022-09-05T01:13:23.490Z,100623.72
2022-09-05T01:16:16.027Z,100621.22
2022-09-05T01:18:47.863Z,100631.28
2022-09-05T01:21:20.072Z,100626.13
2022-09-05T01:23:50.408Z,100625.72
2022-09-05T01:26:33.536Z,100624.53
2022-09-05T01:29:17.872Z,100620.09
2022-09-05T01:32:09.808Z,100619.28
2022-09-05T01:34:57.369Z,100626.59
2022-09-05T01:37:47.934Z,100635.41
2022-09-05T01:40:36.711Z,100641.28
2022-09-05T01:43:06.149Z,100642.63
2022-09-05T01:45:52.623Z,100641.56
2022-09-05T01:48:34.025Z,100628.66
2022-09-05T01:51:31.681Z,100630.97
2022-09-05T01:54:24.626Z,100626.69
2022-09-05T01:56:53.356Z,100627.16
2022-09-05T01:59:31.279Z,100620.88
2022-09-05T02:02:13.868Z,100620.13
2022-09-05T02:04:46.281Z,100627.38
2022-09-05T02:07:30.151Z,100631.72
2022-09-05T02:10:12.840Z,100638.22
2022-09-05T02:12:58.443Z,100634.75
2022-09-05T02:15:41.885Z,100631.28
2022-09-05T02:18:19.768Z,100632.16
2022-09-05T02:20:53.503Z,100634.16
2022-09-05T02:23:41.836Z,100633.84
2022-09-05T02:26:28.929Z,100633.97
2022-09-05T02:29:11.287Z,100632.34
2022-09-05T02:31:48.926Z,100633.03
2022-09-05T02:34:38.698Z,100631.16
2022-09-05T02:37:14.269Z,100632.09
2022-09-05T02:45:09.268Z,100639.84
2022-09-05T02:45:21.234Z,100621.91
2022-09-05T02:46:12.280Z,100622.41
2022-09-05T02:49:04.889Z,100627.38
2022-09-05T02:57:26.917Z,100628.38
2022-09-05T02:57:37.041Z,100629.13
2022-09-05T02:58:05.242Z,100628.63
2022-09-05T03:00:48.109Z,100620.59
2022-09-05T03:03:42.498Z,100623.19
2022-09-05T03:06:34.393Z,100621.34
2022-09-05T03:09:40.047Z,100625.25
2022-09-05T03:12:33.811Z,100624.09
2022-09-05T03:15:24.777Z,100625.19
2022-09-05T03:18:20.952Z,100624.88
2022-09-05T03:21:23.137Z,100619.34
2022-09-05T03:24:23.399Z,100620.78
2022-09-05T03:27:17.539Z,100623.13
2022-09-05T03:29:58.633Z,100619.84
2022-09-05T03:32:49.988Z,100621.66
2022-09-05T03:35:25.396Z,100619.13
2022-09-05T03:38:06.601Z,100623.28
2022-09-05T03:41:01.849Z,100615.56
2022-09-05T03:43:40.386Z,100620.97
2022-09-05T03:46:29.293Z,100621.34
2022-09-05T03:49:20.124Z,100617.69
2022-09-05T03:57:08.303Z,100621.41
2022-09-05T03:57:12.689Z,100624.75
2022-09-05T03:58:55.507Z,100630.34
2022-09-05T04:03:12.926Z,100629.56
2022-09-05T04:08:16.192Z,100623.16
2022-09-05T04:08:17.421Z,100626.41
2022-09-05T04:10:40.568Z,100633.69
2022-09-05T04:13:26.852Z,100623.38
2022-09-05T04:16:17.161Z,100630.13
2022-09-05T04:19:08.079Z,100629.91
2022-09-05T04:21:48.291Z,100633.13
2022-09-05T04:24:45.628Z,100632.41
2022-09-05T04:27:27.918Z,100643.03
2022-09-05T04:30:37.918Z,100641.22
2022-09-05T04:33:03.047Z,100645.94
2022-09-05T04:35:45.871Z,100647.63
2022-09-05T04:38:33.693Z,100652.22
2022-09-05T04:41:04.436Z,100646.31
2022-09-05T04:43:48.182Z,100647.56
2022-09-05T04:46:30.810Z,100647.56
2022-09-05T04:49:07.642Z,100651.94
2022-09-05T04:51:46.153Z,100656.59
2022-09-05T04:54:50.940Z,100663.69
2022-09-05T04:57:20.275Z,100652.69
2022-09-05T05:06:02.263Z,100659.66
2022-09-05T05:06:09.427Z,100668.63
2022-09-05T05:06:20.301Z,100665.69
2022-09-05T05:08:45.617Z,100658.47
2022-09-05T05:18:02.135Z,100668.38
2022-09-05T05:18:06.169Z,100669.84
2022-09-05T05:18:14.074Z,100675.78
2022-09-05T05:20:43.025Z,100670.59
2022-09-05T05:23:08.292Z,100666.81
2022-09-05T05:25:53.273Z,100670.13
2022-09-05T05:28:28.935Z,100666.28
2022-09-05T05:31:01.678Z,100675.31
2022-09-05T05:33:35.487Z,100674.09
2022-09-05T05:36:06.970Z,100680.16
2022-09-05T05:38:57.367Z,100684.91
2022-09-05T05:41:44.029Z,100680.13
2022-09-05T05:44:17.426Z,100686.34
2022-09-05T05:47:18.850Z,100693.13
2022-09-05T05:50:02.858Z,100695.66
2022-09-05T05:52:45.054Z,100700.63
2022-09-05T05:55:51.695Z,100697.63
2022-09-05T05:58:36.068Z,100698.47
2022-09-05T06:01:38.836Z,100710.00
2022-09-05T06:04:44.688Z,100705.69
2022-09-05T06:07:50.989Z,100708.78
2022-09-05T06:14:50.807Z,100705.81
2022-09-05T06:14:56.249Z,100700.25
2022-09-05T06:16:49.709Z,100705.41
2022-09-05T06:22:05.779Z,100705.34
2022-09-05T06:23:39.786Z,100703.88
2022-09-05T06:26:25.274Z,100710.38
2022-09-05T06:28:56.373Z,100713.19
2022-09-05T06:32:17.559Z,100715.56
2022-09-05T06:35:09.782Z,100710.38
2022-09-05T06:38:02.204Z,100704.53
2022-09-05T06:40:36.370Z,100709.66
2022-09-05T06:43:14.801Z,100705.16
2022-09-05T06:45:58.594Z,100705.94
2022-09-05T06:48:46.063Z,100709.78
2022-09-05T06:52:27.966Z,100708.69
2022-09-05T06:55:23.951Z,100714.94
2022-09-05T06:58:27.786Z,100712.59
2022-09-05T07:00:57.109Z,100711.28
2022-09-05T07:03:33.102Z,100711.66
2022-09-05T07:06:19.492Z,100706.03
2022-09-05T07:08:53.717Z,100714.88
2022-09-05T07:11:44.837Z,100716.78
2022-09-05T07:14:24.814Z,100713.88
2022-09-05T07:16:56.197Z,100717.16
2022-09-05T07:19:29.295Z,100710.91
2022-09-05T07:22:29.598Z,100706.72
2022-09-05T07:24:56.553Z,100714.03
2022-09-05T07:27:34.347Z,100712.97
2022-09-05T07:30:21.401Z,100714.09
2022-09-05T07:32:53.384Z,100707.59
2022-09-05T07:35:26.269Z,100710.91
2022-09-05T07:38:15.044Z,100708.28
2022-09-05T07:40:46.578Z,100700.22
2022-09-05T07:43:22.367Z,100711.16
2022-09-05T07:45:56.501Z,100711.75
2022-09-05T07:48:35.134Z,100714.75
2022-09-05T07:56:28.648Z,100712.09
2022-09-05T07:57:00.799Z,100710.19
2022-09-05T07:59:43.106Z,100708.63
2022-09-05T08:02:12.802Z,100710.06
2022-09-05T08:04:41.845Z,100710.19
2022-09-05T08:07:47.346Z,100715.44
2022-09-05T08:10:09.474Z,100715.69
2022-09-05T08:13:22.807Z,100706.75
2022-09-05T08:16:11.050Z,100720.88
2022-09-05T08:18:49.944Z,100711.94
2022-09-05T08:21:43.719Z,100709.44
2022-09-05T08:24:13.582Z,100708.16
2022-09-05T08:26:47.202Z,100707.22
2022-09-05T08:29:20.209Z,100700.03
2022-09-05T08:31:52.418Z,100695.56
2022-09-05T08:34:50.998Z,100696.69
2022-09-05T08:37:21.532Z,100697.94
2022-09-05T08:40:11.670Z,100697.81
2022-09-05T08:42:58.983Z,100703.41
2022-09-05T08:46:36.041Z,100704.63
2022-09-05T08:48:56.297Z,100700.19
2022-09-05T08:51:29.892Z,100698.50
2022-09-05T08:54:24.693Z,100696.22
2022-09-05T08:57:03.249Z,100688.06
2022-09-05T09:00:19.379Z,100689.22
2022-09-05T09:02:49.204Z,100692.97
2022-09-05T09:05:18.689Z,100691.91
2022-09-05T09:08:15.844Z,100687.00
2022-09-05T09:10:57.641Z,100686.66
2022-09-05T09:13:53.218Z,100686.06
2022-09-05T09:16:25.922Z,100679.34
2022-09-05T09:18:52.345Z,100678.59
2022-09-05T09:21:34.187Z,100674.28
2022-09-05T09:24:33.250Z,100674.03
2022-09-05T09:27:09.189Z,100676.09
2022-09-05T09:29:42.047Z,100663.06
2022-09-05T09:32:14.987Z,100669.94
2022-09-05T09:34:47.569Z,100671.75
2022-09-05T09:37:50.747Z,100668.66
2022-09-05T09:40:36.540Z,100654.50
2022-09-05T09:43:27.235Z,100660.81
2022-09-05T09:46:23.266Z,100658.66
2022-09-05T09:49:21.644Z,100658.56
2022-09-05T09:51:54.920Z,100656.75
2022-09-05T09:54:45.341Z,100649.31
2022-09-05T09:57:32.626Z,100643.78
2022-09-05T10:00:21.096Z,100639.59
2022-09-05T10:04:07.325Z,100631.66
2022-09-05T10:10:45.322Z,100628.19
2022-09-05T10:10:50.760Z,100634.41
2022-09-05T10:12:23.427Z,100627.47
2022-09-05T10:15:04.977Z,100622.34
2022-09-05T10:18:20.366Z,100626.13
2022-09-05T10:21:21.695Z,100626.19
2022-09-05T10:24:11.142Z,100609.78
2022-09-05T10:26:37.568Z,100613.13
2022-09-05T10:29:30.168Z,100611.78
2022-09-05T10:35:05.310Z,100618.59
2022-09-05T10:35:13.681Z,100614.81
2022-09-05T10:37:54.789Z,100608.38
2022-09-05T10:40:24.181Z,100613.97
2022-09-05T10:43:02.453Z,100604.81
2022-09-05T10:45:38.604Z,100602.56
2022-09-05T10:48:26.682Z,100596.00
2022-09-05T10:51:03.237Z,100594.28
2022-09-05T10:53:39.250Z,100588.16
2022-09-05T10:56:14.675Z,100586.22
2022-09-05T11:01:59.310Z,100580.50
2022-09-05T11:02:30.353Z,100580.50
2022-09-05T11:04:58.507Z,100572.06
2022-09-05T11:08:01.773Z,100569.19
2022-09-05T11:11:03.185Z,100569.75
2022-09-05T11:13:46.432Z,100560.28
2022-09-05T11:16:24.490Z,100548.03
2022-09-05T11:19:07.305Z,100557.56
2022-09-05T11:22:22.143Z,100556.22
2022-09-05T11:25:00.835Z,100547.63
2022-09-05T11:27:40.900Z,100542.69
2022-09-05T11:30:29.626Z,100546.28
2022-09-05T11:39:35.099Z,100544.78
2022-09-05T11:40:06.568Z,100540.63
2022-09-05T11:40:07.047Z,100542.25
2022-09-05T11:42:09.937Z,100536.19
2022-09-05T11:44:42.659Z,100530.56
2022-09-05T11:47:37.058Z,100534.25
2022-09-05T11:50:29.586Z,100528.72
2022-09-05T11:53:38.184Z,100527.31
2022-09-05T11:56:41.873Z,100528.31
2022-09-05T11:59:37.095Z,100530.31
2022-09-05T12:02:16.932Z,100529.28
2022-09-05T12:05:48.993Z,100525.44
2022-09-05T12:08:38.660Z,100526.41
2022-09-05T12:11:14.113Z,100524.63
2022-09-05T12:13:48.093Z,100512.75
2022-09-05T12:16:59.043Z,100515.53
2022-09-05T12:19:34.821Z,100507.34
2022-09-05T12:22:24.013Z,100507.91
2022-09-05T12:25:25.146Z,100509.25
2022-09-05T12:28:48.396Z,100504.28
2022-09-05T12:32:50.276Z,100501.88
2022-09-05T12:36:04.976Z,100504.56
2022-09-05T12:40:35.535Z,100492.97
2022-09-05T12:41:36.240Z,100484.75
2022-09-05T12:43:53.103Z,100485.16
2022-09-05T12:48:38.912Z,100474.59
2022-09-05T12:51:08.991Z,100466.50
2022-09-05T12:53:50.638Z,100473.56
2022-09-05T13:00:36.267Z,100467.53
2022-09-05T13:02:58.987Z,100469.59
2022-09-05T13:03:12.591Z,100467.06
2022-09-05T13:05:18.569Z,100472.94
2022-09-05T13:07:56.122Z,100475.09
2022-09-05T13:14:47.370Z,100468.88
2022-09-05T13:15:02.615Z,100462.06
2022-09-05T13:16:23.023Z,100466.81
2022-09-05T13:19:04.347Z,100464.25
2022-09-05T13:21:31.571Z,100464.66
2022-09-05T13:24:14.372Z,100461.19
2022-09-05T13:26:59.469Z,100450.25
2022-09-05T13:29:37.223Z,100456.66
2022-09-05T13:38:01.201Z,100448.72
2022-09-05T13:38:02.272Z,100448.19
2022-09-05T13:38:37.710Z,100451.00
2022-09-05T13:40:58.292Z,100442.69
2022-09-05T13:43:30.264Z,100445.34
2022-09-05T13:46:17.864Z,100439.56
2022-09-05T13:52:05.617Z,100436.59
2022-09-05T13:54:51.110Z,100434.78
2022-09-05T13:57:39.683Z,100434.97
2022-09-05T14:00:26.751Z,100425.00
2022-09-05T14:03:38.748Z,100426.91
2022-09-05T14:06:48.650Z,100427.38
2022-09-05T14:09:57.775Z,100428.09
2022-09-05T14:13:00.417Z,100428.75
2022-09-05T14:15:52.243Z,100413.84
2022-09-05T14:19:02.228Z,100412.00
2022-09-05T14:21:31.780Z,100418.78
2022-09-05T14:24:11.658Z,100412.94
2022-09-05T14:27:00.222Z,100407.13
2022-09-05T14:29:38.920Z,100402.50
2022-09-05T14:37:46.202Z,100409.53
2022-09-05T14:38:00.828Z,100395.19
2022-09-05T14:38:56.883Z,100386.72
2022-09-05T14:41:37.313Z,100386.47
2022-09-05T14:44:22.047Z,100389.34
2022-09-05T14:46:57.425Z,100387.97
2022-09-05T14:49:51.098Z,100388.69
2022-09-05T14:52:30.378Z,100379.69
2022-09-05T15:02:45.187Z,100363.94
2022-09-05T15:02:47.894Z,100361.53
2022-09-05T15:06:33.277Z,100361.22
2022-09-05T15:12:18.208Z,100363.13
2022-09-05T15:12:20.853Z,100361.53
2022-09-05T15:14:36.442Z,100355.19
2022-09-05T15:17:05.726Z,100355.72
2022-09-05T15:20:05.562Z,100352.44
2022-09-05T15:22:36.361Z,100343.50
2022-09-05T15:25:12.269Z,100334.41
2022-09-05T15:27:43.873Z,100333.69
2022-09-05T15:30:21.593Z,100344.59
2022-09-05T15:32:50.568Z,100340.13
2022-09-05T15:35:36.565Z,100336.78
2022-09-05T15:38:30.717Z,100328.88
2022-09-05T15:41:19.852Z,100325.81
2022-09-05T15:44:03.061Z,100333.06
2022-09-05T15:47:03.512Z,100327.75
2022-09-05T15:49:35.779Z,100324.94
2022-09-05T15:52:29.316Z,100323.47
2022-09-05T15:55:01.565Z,100318.22
2022-09-05T15:57:35.415Z,100316.69
2022-09-05T16:00:09.045Z,100315.44
2022-09-05T16:02:45.249Z,100317.56
2022-09-05T16:10:36.492Z,100314.03
2022-09-05T16:10:39.495Z,100328.19
2022-09-05T16:12:09.286Z,100324.09
2022-09-05T16:14:39.667Z,100319.00
2022-09-05T16:23:18.737Z,100315.75
2022-09-05T16:23:24.442Z,100313.03
2022-09-05T16:23:40.427Z,100308.22
2022-09-05T16:26:25.733Z,100299.53
2022-09-05T16:29:25.279Z,100303.88
2022-09-05T16:32:17.179Z,100299.53
2022-09-05T16:34:57.078Z,100298.72
2022-09-05T16:37:58.334Z,100291.78
2022-09-05T16:40:30.922Z,100289.03
2022-09-05T16:43:05.857Z,100287.31
2022-09-05T16:45:46.615Z,100285.28
2022-09-05T16:48:36.133Z,100282.88
2022-09-05T16:51:15.658Z,100285.50
2022-09-05T16:53:59.572Z,100280.56
2022-09-05T16:56:35.008Z,100284.50
2022-09-05T16:59:27.038Z,100283.47
2022-09-05T17:02:07.524Z,100284.47
2022-09-05T17:05:05.732Z,100279.88
2022-09-05T17:07:53.442Z,100271.09
2022-09-05T17:10:26.679Z,100267.78
2022-09-05T17:12:54.311Z,100272.22
2022-09-05T17:15:29.517Z,100271.38
2022-09-05T17:18:20.487Z,100269.94
2022-09-05T17:20:56.931Z,100264.00
2022-09-05T17:26:20.291Z,100268.75
2022-09-05T17:29:49.893Z,100256.94
2022-09-05T17:32:33.355Z,100266.31
2022-09-05T17:35:17.956Z,100264.84
2022-09-05T17:38:11.604Z,100254.28
2022-09-05T17:41:12.901Z,100265.16
2022-09-05T17:43:40.813Z,100241.44
2022-09-05T17:46:26.836Z,100247.59
2022-09-05T17:49:18.239Z,100247.63
2022-09-05T17:52:18.322Z,100258.41
2022-09-05T17:54:52.299Z,100261.19
2022-09-05T17:57:27.701Z,100257.38
2022-09-05T18:00:12.258Z,100248.72
2022-09-05T18:02:56.593Z,100264.97
2022-09-05T18:05:54.535Z,100261.69
2022-09-05T18:08:49.398Z,100264.69
2022-09-05T18:11:25.184Z,100262.38
2022-09-05T18:14:02.207Z,100265.06
2022-09-05T18:19:34.237Z,100283.00
2022-09-05T18:22:11.289Z,100282.72
2022-09-05T18:24:45.354Z,100283.97
2022-09-05T18:28:03.814Z,100283.78
2022-09-05T18:30:10.935Z,100299.94
2022-09-05T18:33:55.223Z,100294.88
2022-09-05T18:35:55.771Z,100302.56
2022-09-05T18:38:51.574Z,100303.44
2022-09-05T18:41:18.816Z,100304.97
2022-09-05T18:44:13.597Z,100303.09
2022-09-05T18:46:50.665Z,100303.28
2022-09-05T18:50:26.955Z,100299.03
2022-09-05T18:52:33.403Z,100296.91
2022-09-05T18:56:09.255Z,100300.88
2022-09-05T18:58:05.594Z,100295.84
2022-09-05T19:00:44.807Z,100293.38
2022-09-05T19:03:28.829Z,100295.84
2022-09-05T19:06:34.502Z,100285.88
2022-09-05T19:08:55.973Z,100284.34
2022-09-05T19:11:38.572Z,100279.13
2022-09-05T19:14:43.595Z,100276.19
2022-09-05T19:17:20.963Z,100273.38
2022-09-05T19:20:32.927Z,100266.97
2022-09-05T19:23:11.579Z,100276.97
2022-09-05T19:25:41.220Z,100268.81
2022-09-05T19:36:44.311Z,100276.72
2022-09-05T19:37:03.614Z,100277.91
2022-09-05T19:37:10.874Z,100271.50
2022-09-05T19:42:20.064Z,100282.09
2022-09-05T19:47:35.723Z,100275.56
2022-09-05T19:47:47.154Z,100275.94
2022-09-05T19:48:27.327Z,100279.09
2022-09-05T19:51:16.108Z,100290.06
2022-09-05T19:54:01.329Z,100280.13
2022-09-05T19:56:37.648Z,100281.06
2022-09-05T19:59:34.123Z,100277.09
2022-09-05T20:02:02.445Z,100281.91
2022-09-05T20:04:37.904Z,100274.59
2022-09-05T20:07:31.567Z,100277.28
2022-09-05T20:10:01.745Z,100273.84
2022-09-05T20:12:32.209Z,100269.41
2022-09-05T20:15:20.884Z,100272.59
2022-09-05T20:17:47.418Z,100266.06
2022-09-05T20:20:28.193Z,100265.81
2022-09-05T20:23:05.620Z,100262.56
2022-09-05T20:25:40.056Z,100260.34
2022-09-05T20:28:10.757Z,100267.56
2022-09-05T20:30:42.266Z,100279.19
2022-09-05T20:33:38.120Z,100275.63
2022-09-05T20:43:11.363Z,100280.34
2022-09-05T20:43:20.808Z,100286.34
2022-09-05T20:43:29.617Z,100277.47
2022-09-05T20:44:48.240Z,100289.16
2022-09-05T20:54:09.786Z,100294.03
2022-09-05T20:54:14.957Z,100296.22
2022-09-05T20:54:19.063Z,100296.63
2022-09-05T20:56:30.924Z,100295.47
2022-09-05T20:59:01.169Z,100286.81
2022-09-05T21:01:30.343Z,100283.03
2022-09-05T21:04:02.385Z,100287.34
2022-09-05T21:06:33.552Z,100287.69
2022-09-05T21:09:24.735Z,100277.06
2022-09-05T21:11:58.650Z,100280.56
2022-09-05T21:14:28.116Z,100282.06
2022-09-05T21:17:04.597Z,100278.28
2022-09-05T21:19:41.820Z,100276.22
2022-09-05T21:22:23.941Z,100275.56
2022-09-05T21:25:15.443Z,100281.53
2022-09-05T21:27:43.135Z,100276.09
2022-09-05T21:30:22.132Z,100268.56
2022-09-05T21:32:55.364Z,100273.63
2022-09-05T21:35:35.159Z,100279.03
2022-09-05T21:38:02.208Z,100271.66
2022-09-05T21:40:28.910Z,100277.63
2022-09-05T21:47:33.202Z,100272.34
2022-09-05T21:47:39.163Z,100271.84
2022-09-05T21:48:34.532Z,100270.66
2022-09-05T21:51:13.023Z,100265.25
2022-09-05T21:55:10.709Z,100267.50
2022-09-05T21:59:25.802Z,100277.03
2022-09-05T21:59:46.038Z,100264.56
2022-09-05T22:02:16.601Z,100257.34
2022-09-05T22:04:43.362Z,100259.66
2022-09-05T22:07:27.370Z,100256.03
2022-09-05T22:09:59.812Z,100248.28
2022-09-05T22:12:31.366Z,100252.22
2022-09-05T22:14:59.368Z,100251.63
2022-09-05T22:17:45.780Z,100242.44
2022-09-05T22:20:16.887Z,100251.75
2022-09-05T22:22:45.275Z,100253.28
2022-09-05T22:25:35.628Z,100250.97
2022-09-05T22:28:06.200Z,100243.25
2022-09-05T22:30:35.743Z,100244.78
2022-09-05T22:33:05.304Z,100245.09
2022-09-05T22:35:33.672Z,100242.69
2022-09-05T22:38:10.511Z,100240.09
2022-09-05T22:40:40.024Z,100238.59
2022-09-05T22:43:08.879Z,100216.41
2022-09-05T22:45:37.248Z,100210.22
2022-09-05T22:48:09.637Z,100219.69
2022-09-05T22:50:37.169Z,100220.13
2022-09-05T22:53:06.824Z,100234.09
2022-09-05T22:55:38.392Z,100245.06
2022-09-05T22:58:07.364Z,100250.69
2022-09-05T23:00:34.632Z,100249.22
2022-09-05T23:03:03.394Z,100253.94
2022-09-05T23:05:29.923Z,100240.66
2022-09-05T23:08:00.468Z,100240.09
2022-09-05T23:10:27.795Z,100253.75
2022-09-05T23:12:54.239Z,100261.31
2022-09-05T23:15:20.769Z,100254.44
2022-09-05T23:17:58.298Z,100253.50
2022-09-05T23:20:27.129Z,100256.09
2022-09-05T23:22:53.690Z,100259.25
2022-09-05T23:25:21.445Z,100257.94
2022-09-05T23:27:48.650Z,100259.00
2022-09-05T23:30:15.309Z,100260.94
2022-09-05T23:32:49.467Z,100253.13
2022-09-05T23:35:17.923Z,100257.16
2022-09-05T23:37:45.785Z,100260.94
2022-09-05T23:40:14.016Z,100259.75
2022-09-05T23:42:41.473Z,100250.53
2022-09-05T23:45:09.089Z,100263.63
2022-09-05T23:47:36.424Z,100251.50
2022-09-05T23:50:03.764Z,100254.75
2022-09-05T23:52:30.278Z,100243.97
2022-09-05T23:54:56.702Z,100246.47
2022-09-05T23:57:23.910Z,100231.88
2022-09-05T23:59:52.381Z,100231.56
